createdAt,value
2022-11-14T00:01:33.026Z,194.27
2022-11-14T00:04:28.346Z,241.15
2022-11-14T00:07:21.120Z,161.25
2022-11-14T00:10:12.425Z,350.33
2022-11-14T00:13:03.067Z,165.43
2022-11-14T00:15:56.937Z,238.85
2022-11-14T00:18:47.730Z,151.23
2022-11-14T00:21:38.582Z,268.60
2022-11-14T00:24:29.376Z,288.05
2022-11-14T00:27:20.344Z,95.10
2022-11-14T00:30:11.152Z,197.88
2022-11-14T00:33:01.893Z,167.40
2022-11-14T00:35:54.351Z,170.80
2022-11-14T00:38:44.862Z,197.93
2022-11-14T00:41:35.259Z,122.22
2022-11-14T00:44:25.651Z,199.98
2022-11-14T00:47:16.183Z,161.77
2022-11-14T00:50:07.826Z,225.35
2022-11-14T00:52:58.259Z,146.77
2022-11-14T00:55:48.752Z,173.73
2022-11-14T00:58:39.677Z,299.70
2022-11-14T01:01:30.244Z,157.73
2022-11-14T01:04:21.311Z,128.68
2022-11-14T01:07:11.807Z,271.08
2022-11-14T01:10:02.963Z,119.97
2022-11-14T01:12:53.394Z,179.75
2022-11-14T01:15:48.015Z,435.83
2022-11-14T01:18:39.987Z,73.30
2022-11-14T01:21:31.108Z,345.58
2022-11-14T01:24:21.805Z,256.50
2022-11-14T01:27:12.843Z,432.20
2022-11-14T01:30:04.575Z,433.08
2022-11-14T01:32:55.006Z,277.38
2022-11-14T01:35:45.771Z,372.02
2022-11-14T01:38:37.834Z,133.93
2022-11-14T01:41:28.528Z,50.38
2022-11-14T01:44:38.913Z,198.32
2022-11-14T01:47:32.438Z,52.97
2022-11-14T01:50:22.914Z,225.38
2022-11-14T01:53:13.434Z,100.03
2022-11-14T01:56:07.458Z,141.45
2022-11-14T01:59:06.991Z,146.85
2022-11-14T02:02:01.641Z,127.47
2022-11-14T02:07:48.360Z,122.38
2022-11-14T02:10:38.863Z,83.03
2022-11-14T02:13:29.782Z,51.35
2022-11-14T02:16:23.012Z,67.90
2022-11-14T02:19:15.680Z,63.00
2022-11-14T02:22:06.275Z,63.72
2022-11-14T02:24:57.243Z,143.85
2022-11-14T02:27:51.520Z,32.35
2022-11-14T02:30:42.509Z,60.30
2022-11-14T02:33:33.033Z,36.08
2022-11-14T02:36:23.482Z,38.90
2022-11-14T02:39:13.898Z,42.28
2022-11-14T02:42:04.524Z,35.25
2022-11-14T02:44:55.177Z,82.22
2022-11-14T02:47:45.985Z,46.17
2022-11-14T02:50:36.657Z,26.42
2022-11-14T02:53:27.024Z,98.07
2022-11-14T02:56:18.329Z,52.65
2022-11-14T02:59:11.418Z,51.83
2022-11-14T03:02:02.274Z,82.40
2022-11-14T03:04:53.106Z,125.07
2022-11-14T03:07:44.275Z,53.15
2022-11-14T03:10:35.147Z,91.20
2022-11-14T03:13:32.069Z,66.28
2022-11-14T03:16:25.944Z,131.25
2022-11-14T03:19:19.643Z,124.00
2022-11-14T03:22:09.921Z,295.83
2022-11-14T03:25:01.182Z,160.15
2022-11-14T03:27:51.783Z,99.90
2022-11-14T03:30:42.354Z,41.05
2022-11-14T03:33:33.676Z,108.95
2022-11-14T03:36:24.227Z,228.98
2022-11-14T03:39:14.681Z,85.25
2022-11-14T03:42:05.494Z,279.50
2022-11-14T03:44:56.289Z,220.98
2022-11-14T03:47:46.766Z,121.55
2022-11-14T03:50:37.263Z,53.58
2022-11-14T03:53:28.463Z,87.93
2022-11-14T03:56:18.670Z,173.68
2022-11-14T03:59:09.168Z,150.95
2022-11-14T04:01:59.638Z,138.65
2022-11-14T04:04:50.612Z,74.55
2022-11-14T04:07:41.194Z,89.43
2022-11-14T04:10:31.652Z,47.25
2022-11-14T04:13:22.262Z,219.32
2022-11-14T04:16:12.970Z,64.10
2022-11-14T04:19:03.789Z,52.65
2022-11-14T04:21:57.293Z,57.22
2022-11-14T04:24:47.970Z,51.58
2022-11-14T04:27:38.471Z,116.90
2022-11-14T04:30:33.581Z,53.13
2022-11-14T04:33:25.605Z,91.40
2022-11-14T04:36:16.098Z,31.73
2022-11-14T04:39:07.185Z,56.33
2022-11-14T04:41:57.689Z,42.78
2022-11-14T04:44:48.254Z,25.10
2022-11-14T04:47:41.121Z,49.33
2022-11-14T04:50:31.894Z,49.55
2022-11-14T04:53:22.732Z,17.83
2022-11-14T04:56:13.070Z,25.70
2022-11-14T04:59:03.832Z,66.05
2022-11-14T05:01:54.791Z,169.85
2022-11-14T05:04:47.302Z,58.17
2022-11-14T05:07:38.027Z,38.35
2022-11-14T05:10:29.000Z,87.85
2022-11-14T05:13:19.880Z,70.57
2022-11-14T05:16:10.555Z,24.13
2022-11-14T05:19:01.311Z,27.48
2022-11-14T05:21:51.831Z,36.95
2022-11-14T05:24:42.448Z,26.17
2022-11-14T05:27:33.711Z,29.42
2022-11-14T05:30:24.521Z,47.25
2022-11-14T05:33:15.401Z,41.63
2022-11-14T05:36:09.093Z,59.72
2022-11-14T05:38:59.678Z,29.73
2022-11-14T05:41:50.340Z,21.40
2022-11-14T05:44:40.798Z,32.90
2022-11-14T05:47:31.277Z,19.10
2022-11-14T05:50:22.338Z,18.75
2022-11-14T05:53:12.614Z,21.38
2022-11-14T05:56:05.344Z,15.55
2022-11-14T05:58:56.254Z,15.05
2022-11-14T06:01:46.845Z,14.48
2022-11-14T06:04:37.883Z,21.08
2022-11-14T06:07:28.632Z,14.70
2022-11-14T06:10:19.456Z,14.95
2022-11-14T06:13:10.277Z,22.42
2022-11-14T06:16:02.480Z,15.65
2022-11-14T06:18:54.106Z,16.50
2022-11-14T06:21:44.972Z,19.15
2022-11-14T06:24:36.284Z,17.88
2022-11-14T06:27:26.902Z,18.45
2022-11-14T06:30:17.578Z,18.38
2022-11-14T06:33:08.494Z,17.55
2022-11-14T06:36:05.069Z,18.15
2022-11-14T06:38:55.894Z,16.88
2022-11-14T06:41:46.319Z,16.08
2022-11-14T06:44:36.753Z,13.88
2022-11-14T06:47:27.254Z,19.77
2022-11-14T06:50:17.917Z,16.92
2022-11-14T06:53:08.310Z,23.40
2022-11-14T06:56:01.034Z,25.05
2022-11-14T06:58:51.786Z,18.55
2022-11-14T07:01:42.300Z,18.85
2022-11-14T07:04:32.904Z,19.08
2022-11-14T07:07:23.333Z,15.90
2022-11-14T07:10:13.695Z,21.17
2022-11-14T07:13:04.297Z,18.17
2022-11-14T07:15:55.981Z,17.98
2022-11-14T07:18:46.786Z,20.65
2022-11-14T07:21:37.636Z,21.55
2022-11-14T07:24:28.332Z,21.08
2022-11-14T07:27:19.291Z,22.30
2022-11-14T07:30:10.552Z,25.40
2022-11-14T07:33:01.103Z,23.05
2022-11-14T07:35:52.126Z,18.00
2022-11-14T07:38:42.921Z,22.40
2022-11-14T07:41:33.794Z,17.73
2022-11-14T07:44:24.055Z,15.88
2022-11-14T07:47:14.569Z,22.60
2022-11-14T07:50:05.831Z,20.33
2022-11-14T07:52:57.688Z,18.38
2022-11-14T07:55:48.413Z,20.00
2022-11-14T07:58:41.013Z,20.10
2022-11-14T08:01:31.951Z,22.20
2022-11-14T08:04:22.934Z,15.82
2022-11-14T08:07:13.601Z,18.55
2022-11-14T08:10:05.152Z,18.42
2022-11-14T08:13:25.229Z,18.65
2022-11-14T08:16:13.795Z,16.65
2022-11-14T08:19:05.206Z,19.88
2022-11-14T08:21:55.637Z,19.02
2022-11-14T08:24:46.578Z,19.17
2022-11-14T08:27:37.511Z,19.73
2022-11-14T08:30:28.867Z,16.52
2022-11-14T08:33:19.873Z,17.02
2022-11-14T08:36:11.405Z,17.80
2022-11-14T08:39:02.335Z,18.20
2022-11-14T08:41:53.218Z,17.48
2022-11-14T08:44:47.980Z,16.92
2022-11-14T08:47:42.447Z,19.10
2022-11-14T08:50:33.019Z,17.40
2022-11-14T08:53:24.401Z,16.10
2022-11-14T08:56:14.787Z,17.20
2022-11-14T08:59:05.595Z,18.13
2022-11-14T09:01:56.191Z,18.85
2022-11-14T09:04:46.618Z,22.65
2022-11-14T09:07:37.706Z,20.88
2022-11-14T09:10:29.037Z,18.67
2022-11-14T09:13:19.542Z,16.70
2022-11-14T09:16:10.018Z,19.30
2022-11-14T09:19:01.057Z,23.92
2022-11-14T09:21:51.585Z,25.10
2022-11-14T09:24:41.979Z,22.92
2022-11-14T09:27:32.730Z,22.58
2022-11-14T09:30:24.016Z,19.15
2022-11-14T09:33:15.002Z,21.27
2022-11-14T09:36:08.183Z,22.00
2022-11-14T09:38:58.720Z,24.87
2022-11-14T09:41:57.831Z,20.02
2022-11-14T09:44:59.851Z,19.52
2022-11-14T09:47:55.646Z,16.80
2022-11-14T09:51:19.344Z,16.90
2022-11-14T09:54:28.687Z,20.70
2022-11-14T09:57:21.071Z,26.83
2022-11-14T10:00:23.689Z,19.05
2022-11-14T10:03:30.785Z,19.88
2022-11-14T10:06:25.383Z,22.45
2022-11-14T10:09:30.857Z,22.67
2022-11-14T10:12:40.918Z,18.80
2022-11-14T10:15:49.596Z,19.88
2022-11-14T10:18:49.839Z,16.50
2022-11-14T10:22:05.099Z,16.35
2022-11-14T10:24:55.469Z,13.82
2022-11-14T10:28:24.963Z,14.10
2022-11-14T10:31:48.301Z,12.90
2022-11-14T10:35:08.780Z,10.18
2022-11-14T10:38:24.741Z,12.40
2022-11-14T10:41:34.700Z,8.73
2022-11-14T10:44:34.650Z,13.45
2022-11-14T10:47:27.856Z,12.13
2022-11-14T10:50:33.985Z,15.45
2022-11-14T10:53:37.197Z,12.85
2022-11-14T10:56:27.584Z,10.55
2022-11-14T10:59:19.811Z,11.45
2022-11-14T11:02:11.688Z,11.95
2022-11-14T11:05:15.552Z,12.00
2022-11-14T11:08:43.219Z,11.25
2022-11-14T11:11:51.735Z,14.90
2022-11-14T11:14:43.228Z,9.88
2022-11-14T11:17:40.090Z,10.20
2022-11-14T11:20:36.216Z,13.73
2022-11-14T11:23:28.198Z,11.80
2022-11-14T11:26:18.843Z,13.07
2022-11-14T11:29:12.074Z,11.90
2022-11-14T11:32:02.805Z,12.23
2022-11-14T11:34:53.622Z,9.05
2022-11-14T11:37:54.850Z,10.98
2022-11-14T11:40:48.950Z,15.35
2022-11-14T11:43:50.291Z,11.77
2022-11-14T11:47:02.184Z,9.30
2022-11-14T11:49:54.804Z,12.30
2022-11-14T11:52:45.687Z,12.40
2022-11-14T11:55:46.483Z,10.82
2022-11-14T11:58:48.192Z,15.05
2022-11-14T12:01:38.896Z,16.08
2022-11-14T12:04:30.955Z,15.00
2022-11-14T12:07:42.974Z,20.58
2022-11-14T12:10:37.732Z,20.05
2022-11-14T12:13:54.893Z,18.98
2022-11-14T12:17:10.725Z,25.85
2022-11-14T12:20:26.725Z,26.40
2022-11-14T12:23:31.913Z,26.02
2022-11-14T12:27:00.505Z,19.75
2022-11-14T12:30:00.711Z,19.63
2022-11-14T12:33:17.271Z,18.35
2022-11-14T12:36:12.823Z,16.27
2022-11-14T12:39:04.196Z,21.48
2022-11-14T12:42:06.357Z,13.02
2022-11-14T12:44:56.881Z,12.35
2022-11-14T12:48:15.442Z,13.25
2022-11-14T12:51:26.096Z,15.13
2022-11-14T12:54:46.159Z,10.82
2022-11-14T12:57:50.375Z,13.07
2022-11-14T13:00:46.931Z,12.20
2022-11-14T13:03:43.849Z,9.10
2022-11-14T13:06:45.843Z,12.65
2022-11-14T13:09:53.829Z,16.42
2022-11-14T13:13:24.918Z,10.82
2022-11-14T13:16:48.883Z,12.65
2022-11-14T13:20:05.202Z,11.75
2022-11-14T13:22:56.499Z,11.95
2022-11-14T13:25:46.824Z,11.43
2022-11-14T13:28:50.956Z,10.65
2022-11-14T13:31:45.049Z,13.32
2022-11-14T13:34:52.415Z,12.52
2022-11-14T13:38:13.794Z,9.15
2022-11-14T13:41:20.166Z,10.52
2022-11-14T13:44:37.654Z,10.05
2022-11-14T13:48:05.986Z,11.27
2022-11-14T13:51:15.603Z,10.30
2022-11-14T13:54:18.295Z,9.48
2022-11-14T13:57:34.044Z,11.48
2022-11-14T14:00:24.844Z,10.45
2022-11-14T14:03:27.136Z,11.70
2022-11-14T14:06:20.310Z,9.57
2022-11-14T14:09:39.845Z,13.13
2022-11-14T14:12:42.444Z,12.98
2022-11-14T14:16:09.669Z,12.05
2022-11-14T14:19:23.026Z,17.38
2022-11-14T14:22:21.995Z,16.25
2022-11-14T14:25:12.846Z,14.77
2022-11-14T14:28:16.064Z,11.70
2022-11-14T14:31:15.116Z,9.93
2022-11-14T14:34:23.392Z,10.32
2022-11-14T14:37:51.742Z,10.82
2022-11-14T14:40:56.074Z,15.23
2022-11-14T14:43:55.542Z,12.90
2022-11-14T14:46:46.093Z,11.75
2022-11-14T14:49:37.945Z,10.60
2022-11-14T14:52:38.634Z,20.42
2022-11-14T14:55:32.734Z,15.93
2022-11-14T15:01:18.752Z,18.08
2022-11-14T15:04:14.597Z,16.73
2022-11-14T15:07:05.430Z,15.98
2022-11-14T15:10:01.881Z,13.35
2022-11-14T15:12:53.956Z,16.23
2022-11-14T15:15:45.263Z,10.63
2022-11-14T15:18:37.173Z,13.73
2022-11-14T15:21:30.012Z,15.13
2022-11-14T15:24:23.247Z,12.38
2022-11-14T15:27:19.502Z,12.25
2022-11-14T15:30:25.536Z,14.00
2022-11-14T15:33:28.578Z,12.13
2022-11-14T15:36:19.094Z,13.52
2022-11-14T15:39:28.305Z,16.33
2022-11-14T15:42:26.606Z,14.48
2022-11-14T15:45:24.240Z,13.43
2022-11-14T15:48:18.574Z,14.63
2022-11-14T15:51:09.791Z,14.63
2022-11-14T15:54:00.832Z,15.60
2022-11-14T15:56:52.290Z,16.02
2022-11-14T15:59:42.926Z,18.30
2022-11-14T16:02:34.802Z,19.55
2022-11-14T16:05:29.164Z,18.88
2022-11-14T16:08:19.811Z,18.33
2022-11-14T16:11:10.175Z,17.60
2022-11-14T16:14:00.438Z,19.67
2022-11-14T16:16:50.893Z,19.50
2022-11-14T16:19:41.464Z,19.00
2022-11-14T16:22:32.449Z,19.67
2022-11-14T16:25:26.623Z,16.63
2022-11-14T16:28:17.105Z,20.58
2022-11-14T16:31:15.336Z,17.83
2022-11-14T16:34:06.702Z,19.10
2022-11-14T16:37:02.154Z,21.13
2022-11-14T16:39:52.822Z,14.95
2022-11-14T16:42:43.692Z,29.48
2022-11-14T16:45:39.243Z,25.52
2022-11-14T16:48:29.977Z,23.50
2022-11-14T16:51:46.614Z,18.48
2022-11-14T16:54:33.279Z,15.93
2022-11-14T16:57:25.063Z,16.05
2022-11-14T17:00:16.249Z,16.08
2022-11-14T17:03:07.251Z,17.92
2022-11-14T17:05:57.834Z,17.38
2022-11-14T17:08:48.302Z,17.77
2022-11-14T17:11:39.013Z,15.55
2022-11-14T17:14:29.694Z,16.35
2022-11-14T17:17:20.835Z,16.33
2022-11-14T17:20:12.030Z,18.48
2022-11-14T17:23:02.546Z,15.57
2022-11-14T17:25:53.764Z,19.02
2022-11-14T17:28:46.395Z,19.08
2022-11-14T17:31:38.971Z,17.88
2022-11-14T17:34:38.637Z,16.67
2022-11-14T17:37:30.707Z,14.95
2022-11-14T17:40:21.440Z,15.70
2022-11-14T17:43:15.981Z,15.57
2022-11-14T17:46:11.197Z,15.65
2022-11-14T17:49:05.896Z,16.60
2022-11-14T17:51:56.348Z,17.25
2022-11-14T17:54:46.693Z,16.50
2022-11-14T17:57:37.518Z,16.35
2022-11-14T18:00:28.363Z,15.07
2022-11-14T18:03:19.882Z,21.83
2022-11-14T18:06:16.600Z,20.67
2022-11-14T18:09:11.556Z,29.92
2022-11-14T18:12:05.165Z,19.70
2022-11-14T18:14:55.965Z,16.48
2022-11-14T18:17:46.672Z,14.13
2022-11-14T18:20:42.420Z,20.58
2022-11-14T18:23:35.332Z,15.15
2022-11-14T18:26:28.680Z,25.02
2022-11-14T18:29:22.447Z,20.17
2022-11-14T18:35:04.594Z,26.05
2022-11-14T18:37:55.365Z,18.15
2022-11-14T18:40:46.394Z,20.10
2022-11-14T18:43:40.060Z,20.13
2022-11-14T18:46:37.209Z,19.55
2022-11-14T18:49:28.794Z,20.13
2022-11-14T18:52:19.969Z,18.85
2022-11-14T18:55:10.850Z,17.10
2022-11-14T18:58:01.838Z,20.85
2022-11-14T19:00:53.195Z,22.52
2022-11-14T19:03:44.542Z,19.85
2022-11-14T19:06:38.045Z,24.65
2022-11-14T19:09:30.146Z,26.98
2022-11-14T19:12:22.890Z,27.65
2022-11-14T19:15:13.280Z,27.42
2022-11-14T19:18:04.766Z,27.83
2022-11-14T19:21:00.319Z,27.85
2022-11-14T19:23:51.158Z,28.25
2022-11-14T19:26:41.951Z,30.10
2022-11-14T19:29:32.516Z,25.55
2022-11-14T19:32:23.476Z,31.98
2022-11-14T19:35:20.599Z,41.35
2022-11-14T19:38:11.654Z,46.08
2022-11-14T19:41:10.428Z,36.30
2022-11-14T19:44:02.792Z,38.17
2022-11-14T19:46:53.471Z,35.60
2022-11-14T19:49:44.197Z,30.98
2022-11-14T19:52:35.232Z,32.03
2022-11-14T19:55:26.222Z,31.63
2022-11-14T19:58:16.997Z,37.78
2022-11-14T20:01:19.347Z,34.97
2022-11-14T20:04:12.864Z,38.17
2022-11-14T20:07:09.551Z,34.47
2022-11-14T20:10:00.218Z,41.60
2022-11-14T20:12:51.675Z,37.28
2022-11-14T20:15:42.191Z,35.90
2022-11-14T20:18:32.485Z,37.67
2022-11-14T20:21:24.758Z,43.80
2022-11-14T20:24:21.471Z,40.95
2022-11-14T20:27:12.994Z,48.08
2022-11-14T20:30:04.302Z,41.50
2022-11-14T20:32:55.515Z,37.22
2022-11-14T20:35:46.358Z,39.10
2022-11-14T20:38:37.140Z,40.42
2022-11-14T20:41:27.509Z,37.20
2022-11-14T20:44:18.997Z,41.55
2022-11-14T20:47:11.158Z,42.83
2022-11-14T20:50:02.039Z,40.97
2022-11-14T20:52:52.415Z,43.38
2022-11-14T20:55:43.591Z,41.70
2022-11-14T20:58:34.781Z,42.33
2022-11-14T21:01:25.872Z,41.47
2022-11-14T21:04:16.808Z,39.53
2022-11-14T21:07:07.754Z,40.85
2022-11-14T21:10:17.541Z,39.38
2022-11-14T21:13:31.131Z,34.42
2022-11-14T21:16:24.951Z,35.28
2022-11-14T21:19:19.216Z,35.78
2022-11-14T21:22:10.129Z,35.85
2022-11-14T21:25:02.012Z,36.60
2022-11-14T21:27:52.498Z,33.10
2022-11-14T21:30:43.219Z,28.65
2022-11-14T21:33:33.940Z,28.08
2022-11-14T21:39:36.727Z,26.05
2022-11-14T21:42:27.226Z,22.75
2022-11-14T21:45:18.032Z,27.95
2022-11-14T21:48:08.537Z,21.65
2022-11-14T21:51:05.805Z,21.25
2022-11-14T21:54:02.814Z,27.38
2022-11-14T21:56:53.342Z,23.88
2022-11-14T21:59:43.780Z,20.08
2022-11-14T22:02:53.190Z,27.77
2022-11-14T22:05:43.638Z,25.75
2022-11-14T22:08:34.851Z,23.83
2022-11-14T22:11:25.237Z,22.05
2022-11-14T22:14:15.803Z,18.50
2022-11-14T22:17:06.495Z,18.60
2022-11-14T22:19:57.027Z,19.20
2022-11-14T22:22:47.306Z,15.95
2022-11-14T22:25:37.752Z,17.25
2022-11-14T22:28:29.038Z,15.02
2022-11-14T22:31:21.515Z,15.93
2022-11-14T22:34:12.492Z,17.00
2022-11-14T22:37:02.825Z,16.52
2022-11-14T22:39:53.506Z,17.23
2022-11-14T22:42:43.970Z,15.32
2022-11-14T22:45:34.520Z,18.75
2022-11-14T22:48:26.903Z,19.70
2022-11-14T22:51:20.029Z,16.48
2022-11-14T22:54:11.133Z,14.20
2022-11-14T22:57:01.830Z,12.70
2022-11-14T22:59:52.195Z,15.77
2022-11-14T23:02:43.356Z,13.60
2022-11-14T23:05:37.865Z,12.07
2022-11-14T23:08:28.721Z,14.05
2022-11-14T23:11:24.659Z,14.45
2022-11-14T23:14:15.088Z,16.67
2022-11-14T23:17:05.475Z,13.55
2022-11-14T23:19:56.513Z,12.23
2022-11-14T23:22:47.161Z,12.25
2022-11-14T23:25:37.972Z,13.15
2022-11-14T23:28:30.900Z,19.00
2022-11-14T23:31:21.861Z,15.05
2022-11-14T23:34:12.611Z,11.20
2022-11-14T23:37:03.563Z,15.38
2022-11-14T23:39:54.656Z,15.40
2022-11-14T23:42:45.186Z,12.88
2022-11-14T23:45:35.623Z,16.73
2022-11-14T23:48:26.357Z,12.85
2022-11-14T23:51:17.638Z,13.40
2022-11-14T23:54:08.384Z,16.55
2022-11-14T23:57:03.951Z,11.60
2022-11-14T23:59:55.220Z,15.95
